sensor_id;sensor_type;location;lat;lon;timestamp;pressure;altitude;pressure_sealevel;temperature;humidity
48848;BME280;75039;51.970;5.660;2024-01-15T00:00:23;100357.72;;;5.91;62.80
48848;BME280;75039;51.970;5.660;2024-01-15T00:02:49;100350.84;;;5.87;62.71
48848;BME280;75039;51.970;5.660;2024-01-15T00:05:16;100349.22;;;5.84;62.71
48848;BME280;75039;51.970;5.660;2024-01-15T00:07:43;100353.00;;;5.80;62.69
48848;BME280;75039;51.970;5.660;2024-01-15T00:10:09;100346.91;;;5.78;62.71
48848;BME280;75039;51.970;5.660;2024-01-15T00:12:39;100346.16;;;5.76;62.79
48848;BME280;75039;51.970;5.660;2024-01-15T00:15:06;100340.91;;;5.74;62.75
48848;BME280;75039;51.970;5.660;2024-01-15T00:17:33;100331.19;;;5.73;62.72
48848;BME280;75039;51.970;5.660;2024-01-15T00:20:00;100338.44;;;5.71;62.74
48848;BME280;75039;51.970;5.660;2024-01-15T00:22:26;100343.94;;;5.68;62.56
48848;BME280;75039;51.970;5.660;2024-01-15T00:24:56;100341.44;;;5.65;62.69
48848;BME280;75039;51.970;5.660;2024-01-15T00:27:22;100342.50;;;5.63;62.68
48848;BME280;75039;51.970;5.660;2024-01-15T00:29:50;100336.47;;;5.59;62.55
48848;BME280;75039;51.970;5.660;2024-01-15T00:32:18;100334.84;;;5.57;62.65
48848;BME280;75039;51.970;5.660;2024-01-15T00:34:45;100335.03;;;5.54;62.78
48848;BME280;75039;51.970;5.660;2024-01-15T00:37:12;100322.66;;;5.53;62.65
48848;BME280;75039;51.970;5.660;2024-01-15T00:39:40;100331.69;;;5.50;62.76
48848;BME280;75039;51.970;5.660;2024-01-15T00:42:07;100320.28;;;5.48;62.72
48848;BME280;75039;51.970;5.660;2024-01-15T00:44:34;100318.56;;;5.47;62.66
48848;BME280;75039;51.970;5.660;2024-01-15T00:47:01;100310.56;;;5.47;62.61
48848;BME280;75039;51.970;5.660;2024-01-15T00:49:28;100312.38;;;5.47;62.46
48848;BME280;75039;51.970;5.660;2024-01-15T00:51:55;100309.81;;;5.45;62.81
48848;BME280;75039;51.970;5.660;2024-01-15T00:54:21;100302.75;;;5.44;62.72
48848;BME280;75039;51.970;5.660;2024-01-15T00:56:48;100296.50;;;5.45;62.81
48848;BME280;75039;51.970;5.660;2024-01-15T00:59:15;100294.78;;;5.44;62.85
48848;BME280;75039;51.970;5.660;2024-01-15T01:01:42;100286.03;;;5.42;62.60
48848;BME280;75039;51.970;5.660;2024-01-15T01:04:09;100294.94;;;5.41;62.71
48848;BME280;75039;51.970;5.660;2024-01-15T01:06:38;100283.44;;;5.40;62.65
48848;BME280;75039;51.970;5.660;2024-01-15T01:09:04;100287.91;;;5.40;62.70
48848;BME280;75039;51.970;5.660;2024-01-15T01:11:32;100286.19;;;5.39;62.62
48848;BME280;75039;51.970;5.660;2024-01-15T01:13:58;100286.09;;;5.40;62.70
48848;BME280;75039;51.970;5.660;2024-01-15T01:16:25;100280.88;;;5.39;62.67
48848;BME280;75039;51.970;5.660;2024-01-15T01:18:51;100279.16;;;5.38;62.60
48848;BME280;75039;51.970;5.660;2024-01-15T01:21:19;100288.94;;;5.37;62.61
48848;BME280;75039;51.970;5.660;2024-01-15T01:23:45;100279.16;;;5.38;62.67
48848;BME280;75039;51.970;5.660;2024-01-15T01:26:15;100284.41;;;5.39;62.75
48848;BME280;75039;51.970;5.660;2024-01-15T01:28:43;100278.03;;;5.42;62.76
48848;BME280;75039;51.970;5.660;2024-01-15T01:31:10;100290.31;;;5.45;62.69
48848;BME280;75039;51.970;5.660;2024-01-15T01:33:38;100289.34;;;5.46;62.58
48848;BME280;75039;51.970;5.660;2024-01-15T01:36:10;100292.03;;;5.46;62.67
48848;BME280;75039;51.970;5.660;2024-01-15T01:38:37;100279.66;;;5.45;62.70
48848;BME280;75039;51.970;5.660;2024-01-15T01:41:04;100286.78;;;5.44;62.63
48848;BME280;75039;51.970;5.660;2024-01-15T01:43:31;100280.59;;;5.43;62.57
48848;BME280;75039;51.970;5.660;2024-01-15T01:46:00;100282.41;;;5.43;62.59
48848;BME280;75039;51.970;5.660;2024-01-15T01:48:27;100289.53;;;5.42;62.70
48848;BME280;75039;51.970;5.660;2024-01-15T01:50:55;100285.16;;;5.41;62.47
48848;BME280;75039;51.970;5.660;2024-01-15T01:53:24;100286.97;;;5.41;62.63
48848;BME280;75039;51.970;5.660;2024-01-15T01:55:51;100287.81;;;5.41;62.53
48848;BME280;75039;51.970;5.660;2024-01-15T01:58:18;100286.97;;;5.41;62.67
48848;BME280;75039;51.970;5.660;2024-01-15T02:00:46;100278.88;;;5.42;62.51
48848;BME280;75039;51.970;5.660;2024-01-15T02:03:14;100282.50;;;5.41;62.42
48848;BME280;75039;51.970;5.660;2024-01-15T02:05:42;100284.31;;;5.41;62.49
48848;BME280;75039;51.970;5.660;2024-01-15T02:08:09;100268.41;;;5.39;62.43
48848;BME280;75039;51.970;5.660;2024-01-15T02:10:37;100279.06;;;5.39;62.30
48848;BME280;75039;51.970;5.660;2024-01-15T02:13:03;100278.13;;;5.40;62.26
48848;BME280;75039;51.970;5.660;2024-01-15T02:15:30;100280.00;;;5.38;62.25
48848;BME280;75039;51.970;5.660;2024-01-15T02:18:04;100283.72;;;5.36;62.23
48848;BME280;75039;51.970;5.660;2024-01-15T02:20:32;100284.66;;;5.35;62.13
48848;BME280;75039;51.970;5.660;2024-01-15T02:23:09;100282.94;;;5.34;62.20
48848;BME280;75039;51.970;5.660;2024-01-15T02:25:38;100286.56;;;5.33;62.10
48848;BME280;75039;51.970;5.660;2024-01-15T02:28:07;100288.34;;;5.32;62.13
48848;BME280;75039;51.970;5.660;2024-01-15T02:30:39;100281.31;;;5.31;62.20
48848;BME280;75039;51.970;5.660;2024-01-15T02:33:07;100276.00;;;5.31;62.14
48848;BME280;75039;51.970;5.660;2024-01-15T02:35:35;100277.72;;;5.32;62.15
48848;BME280;75039;51.970;5.660;2024-01-15T02:38:05;100276.75;;;5.33;62.17
48848;BME280;75039;51.970;5.660;2024-01-15T02:40:33;100286.47;;;5.34;62.32
48848;BME280;75039;51.970;5.660;2024-01-15T02:43:01;100283.72;;;5.36;62.23
48848;BME280;75039;51.970;5.660;2024-01-15T02:45:27;100294.19;;;5.39;62.12
48848;BME280;75039;51.970;5.660;2024-01-15T02:47:54;100289.63;;;5.41;62.23
48848;BME280;75039;51.970;5.660;2024-01-15T02:50:21;100290.47;;;5.41;62.17
48848;BME280;75039;51.970;5.660;2024-01-15T02:52:48;100292.09;;;5.44;62.28
48848;BME280;75039;51.970;5.660;2024-01-15T02:55:15;100287.47;;;5.48;62.28
48848;BME280;75039;51.970;5.660;2024-01-15T02:57:41;100295.34;;;5.49;62.20
48848;BME280;75039;51.970;5.660;2024-01-15T03:00:08;100295.34;;;5.49;62.10
48848;BME280;75039;51.970;5.660;2024-01-15T03:02:36;100292.69;;;5.49;62.10
48848;BME280;75039;51.970;5.660;2024-01-15T03:05:07;100303.34;;;5.49;62.08
48848;BME280;75039;51.970;5.660;2024-01-15T03:07:34;100298.13;;;5.48;61.92
48848;BME280;75039;51.970;5.660;2024-01-15T03:10:01;100283.84;;;5.49;62.00
48848;BME280;75039;51.970;5.660;2024-01-15T03:12:28;100286.41;;;5.50;61.95
48848;BME280;75039;51.970;5.660;2024-01-15T03:14:54;100281.84;;;5.52;61.95
48848;BME280;75039;51.970;5.660;2024-01-15T03:17:21;100279.97;;;5.54;61.96
48848;BME280;75039;51.970;5.660;2024-01-15T03:19:48;100278.16;;;5.55;61.88
48848;BME280;75039;51.970;5.660;2024-01-15T03:22:16;100274.63;;;5.54;61.87
48848;BME280;75039;51.970;5.660;2024-01-15T03:24:44;100273.78;;;5.54;61.80
48848;BME280;75039;51.970;5.660;2024-01-15T03:27:11;100272.16;;;5.51;61.82
48848;BME280;75039;51.970;5.660;2024-01-15T03:29:39;100272.16;;;5.51;61.78
48848;BME280;75039;51.970;5.660;2024-01-15T03:32:06;100264.25;;;5.50;61.73
48848;BME280;75039;51.970;5.660;2024-01-15T03:34:33;100266.06;;;5.49;61.77
48848;BME280;75039;51.970;5.660;2024-01-15T03:37:00;100262.63;;;5.47;61.67
48848;BME280;75039;51.970;5.660;2024-01-15T03:39:27;100258.25;;;5.46;61.78
48848;BME280;75039;51.970;5.660;2024-01-15T03:41:54;100253.78;;;5.47;61.95
48848;BME280;75039;51.970;5.660;2024-01-15T03:44:20;100258.34;;;5.45;61.76
48848;BME280;75039;51.970;5.660;2024-01-15T03:46:47;100252.16;;;5.44;61.83
48848;BME280;75039;51.970;5.660;2024-01-15T03:49:14;100254.81;;;5.44;61.76
48848;BME280;75039;51.970;5.660;2024-01-15T03:51:41;100243.31;;;5.43;62.00
48848;BME280;75039;51.970;5.660;2024-01-15T03:54:08;100242.56;;;5.41;61.79
48848;BME280;75039;51.970;5.660;2024-01-15T03:56:35;100249.69;;;5.41;61.82
48848;BME280;75039;51.970;5.660;2024-01-15T03:59:02;100245.31;;;5.40;61.85
48848;BME280;75039;51.970;5.660;2024-01-15T04:01:28;100253.28;;;5.40;61.80
48848;BME280;75039;51.970;5.660;2024-01-15T04:03:56;100246.16;;;5.40;62.00
48848;BME280;75039;51.970;5.660;2024-01-15T04:06:22;100247.88;;;5.41;61.82
48848;BME280;75039;51.970;5.660;2024-01-15T04:08:49;100250.44;;;5.43;61.81
48848;BME280;75039;51.970;5.660;2024-01-15T04:11:16;100243.31;;;5.43;61.90
48848;BME280;75039;51.970;5.660;2024-01-15T04:13:43;100247.69;;;5.45;61.99
48848;BME280;75039;51.970;5.660;2024-01-15T04:16:09;100248.56;;;5.45;62.05
48848;BME280;75039;51.970;5.660;2024-01-15T04:18:37;100242.19;;;5.48;61.87
48848;BME280;75039;51.970;5.660;2024-01-15T04:21:05;100251.03;;;5.48;61.96
48848;BME280;75039;51.970;5.660;2024-01-15T04:23:33;100252.66;;;5.51;61.94
48848;BME280;75039;51.970;5.660;2024-01-15T04:25:59;100252.56;;;5.52;61.98
48848;BME280;75039;51.970;5.660;2024-01-15T04:28:26;100240.97;;;5.53;61.82
48848;BME280;75039;51.970;5.660;2024-01-15T04:30:52;100235.72;;;5.52;61.96
48848;BME280;75039;51.970;5.660;2024-01-15T04:33:19;100242.84;;;5.51;61.88
48848;BME280;75039;51.970;5.660;2024-01-15T04:35:46;100238.47;;;5.50;61.90
48848;BME280;75039;51.970;5.660;2024-01-15T04:38:13;100242.00;;;5.51;62.02
48848;BME280;75039;51.970;5.660;2024-01-15T04:40:40;100232.22;;;5.51;61.92
48848;BME280;75039;51.970;5.660;2024-01-15T04:43:07;100220.41;;;5.55;62.00
48848;BME280;75039;51.970;5.660;2024-01-15T04:45:34;100218.53;;;5.57;61.88
48848;BME280;75039;51.970;5.660;2024-01-15T04:48:01;100221.19;;;5.57;61.83
48848;BME280;75039;51.970;5.660;2024-01-15T04:50:28;100213.28;;;5.56;61.78
48848;BME280;75039;51.970;5.660;2024-01-15T04:52:54;100216.91;;;5.55;61.79
48848;BME280;75039;51.970;5.660;2024-01-15T04:55:21;100210.81;;;5.53;61.84
48848;BME280;75039;51.970;5.660;2024-01-15T04:57:48;100207.38;;;5.51;61.78
48848;BME280;75039;51.970;5.660;2024-01-15T05:00:15;100217.28;;;5.49;61.77
48848;BME280;75039;51.970;5.660;2024-01-15T05:02:42;100204.13;;;5.46;61.70
48848;BME280;75039;51.970;5.660;2024-01-15T05:05:08;100192.72;;;5.43;61.83
48848;BME280;75039;51.970;5.660;2024-01-15T05:07:35;100205.28;;;5.41;61.61
48848;BME280;75039;51.970;5.660;2024-01-15T05:10:03;100194.81;;;5.38;61.93
48848;BME280;75039;51.970;5.660;2024-01-15T05:12:30;100195.94;;;5.34;61.82
48848;BME280;75039;51.970;5.660;2024-01-15T05:14:56;100186.31;;;5.32;61.67
48848;BME280;75039;51.970;5.660;2024-01-15T05:17:23;100187.28;;;5.31;61.79
48848;BME280;75039;51.970;5.660;2024-01-15T05:19:50;100187.28;;;5.31;61.89
48848;BME280;75039;51.970;5.660;2024-01-15T05:22:17;100184.53;;;5.32;61.94
48848;BME280;75039;51.970;5.660;2024-01-15T05:24:43;100186.25;;;5.33;62.14
48848;BME280;75039;51.970;5.660;2024-01-15T05:27:10;100187.19;;;5.32;61.97
48848;BME280;75039;51.970;5.660;2024-01-15T05:29:37;100189.94;;;5.31;61.97
48848;BME280;75039;51.970;5.660;2024-01-15T05:32:03;100187.28;;;5.31;61.82
48848;BME280;75039;51.970;5.660;2024-01-15T05:34:30;100188.22;;;5.30;61.99
48848;BME280;75039;51.970;5.660;2024-01-15T05:36:57;100198.78;;;5.31;61.97
48848;BME280;75039;51.970;5.660;2024-01-15T05:39:24;100185.47;;;5.31;61.95
48848;BME280;75039;51.970;5.660;2024-01-15T05:41:51;100196.13;;;5.31;61.92
48848;BME280;75039;51.970;5.660;2024-01-15T05:44:18;100194.31;;;5.32;62.17
48848;BME280;75039;51.970;5.660;2024-01-15T05:46:44;100185.47;;;5.31;62.20
48848;BME280;75039;51.970;5.660;2024-01-15T05:49:12;100187.28;;;5.31;62.17
48848;BME280;75039;51.970;5.660;2024-01-15T05:51:38;100191.66;;;5.32;62.13
48848;BME280;75039;51.970;5.660;2024-01-15T05:54:05;100181.00;;;5.32;62.12
48848;BME280;75039;51.970;5.660;2024-01-15T05:56:33;100183.66;;;5.32;62.13
48848;BME280;75039;51.970;5.660;2024-01-15T05:59:01;100183.66;;;5.32;62.12
48848;BME280;75039;51.970;5.660;2024-01-15T06:01:28;100182.81;;;5.31;62.13
48848;BME280;75039;51.970;5.660;2024-01-15T06:03:55;100182.91;;;5.30;62.05
48848;BME280;75039;51.970;5.660;2024-01-15T06:06:22;100193.66;;;5.28;62.25
48848;BME280;75039;51.970;5.660;2024-01-15T06:08:48;100197.25;;;5.27;62.12
48848;BME280;75039;51.970;5.660;2024-01-15T06:11:15;100188.31;;;5.28;62.20
48848;BME280;75039;51.970;5.660;2024-01-15T06:13:42;100189.19;;;5.29;62.19
48848;BME280;75039;51.970;5.660;2024-01-15T06:16:14;100199.81;;;5.29;62.40
48848;BME280;75039;51.970;5.660;2024-01-15T06:18:41;100194.41;;;5.30;62.30
48848;BME280;75039;51.970;5.660;2024-01-15T06:21:08;100189.94;;;5.31;62.29
48848;BME280;75039;51.970;5.660;2024-01-15T06:23:37;100181.97;;;5.31;62.41
48848;BME280;75039;51.970;5.660;2024-01-15T06:26:04;100182.81;;;5.31;62.36
48848;BME280;75039;51.970;5.660;2024-01-15T06:28:31;100185.38;;;5.33;62.36
48848;BME280;75039;51.970;5.660;2024-01-15T06:30:58;100188.81;;;5.35;62.43
48848;BME280;75039;51.970;5.660;2024-01-15T06:33:25;100189.56;;;5.37;62.29
48848;BME280;75039;51.970;5.660;2024-01-15T06:35:52;100190.53;;;5.36;62.45
48848;BME280;75039;51.970;5.660;2024-01-15T06:38:19;100195.84;;;5.36;62.20
48848;BME280;75039;51.970;5.660;2024-01-15T06:40:45;100201.34;;;5.33;62.26
48848;BME280;75039;51.970;5.660;2024-01-15T06:43:18;100203.25;;;5.31;62.25
48848;BME280;75039;51.970;5.660;2024-01-15T06:45:45;100203.44;;;5.28;62.31
48848;BME280;75039;51.970;5.660;2024-01-15T06:48:12;100187.66;;;5.25;62.19
48848;BME280;75039;51.970;5.660;2024-01-15T06:50:43;100189.53;;;5.23;62.20
48848;BME280;75039;51.970;5.660;2024-01-15T06:53:10;100174.59;;;5.20;62.34
48848;BME280;75039;51.970;5.660;2024-01-15T06:55:38;100170.28;;;5.18;62.10
48848;BME280;75039;51.970;5.660;2024-01-15T06:58:05;100174.84;;;5.16;62.09
48848;BME280;75039;51.970;5.660;2024-01-15T07:00:32;100182.94;;;5.14;62.14
48848;BME280;75039;51.970;5.660;2024-01-15T07:02:58;100190.06;;;5.14;62.07
48848;BME280;75039;51.970;5.660;2024-01-15T07:05:25;100184.72;;;5.14;62.27
48848;BME280;75039;51.970;5.660;2024-01-15T07:07:52;100187.41;;;5.14;62.31
48848;BME280;75039;51.970;5.660;2024-01-15T07:10:19;100185.59;;;5.14;62.29
48848;BME280;75039;51.970;5.660;2024-01-15T07:12:46;100186.44;;;5.15;62.23
48848;BME280;75039;51.970;5.660;2024-01-15T07:15:13;100176.66;;;5.15;62.18
48848;BME280;75039;51.970;5.660;2024-01-15T07:17:40;100170.56;;;5.13;62.24
48848;BME280;75039;51.970;5.660;2024-01-15T07:20:08;100170.56;;;5.13;62.41
48848;BME280;75039;51.970;5.660;2024-01-15T07:22:35;100174.25;;;5.10;62.27
48848;BME280;75039;51.970;5.660;2024-01-15T07:25:02;100176.16;;;5.08;62.35
48848;BME280;75039;51.970;5.660;2024-01-15T07:27:29;100170.84;;;5.08;62.44
48848;BME280;75039;51.970;5.660;2024-01-15T07:29:55;100161.91;;;5.09;62.38
48848;BME280;75039;51.970;5.660;2024-01-15T07:32:26;100153.94;;;5.09;62.52
48848;BME280;75039;51.970;5.660;2024-01-15T07:34:53;100158.22;;;5.12;62.41
48848;BME280;75039;51.970;5.660;2024-01-15T07:37:20;100162.59;;;5.13;62.45
48848;BME280;75039;51.970;5.660;2024-01-15T07:39:46;100161.72;;;5.13;62.36
48848;BME280;75039;51.970;5.660;2024-01-15T07:42:13;100179.41;;;5.14;62.30
48848;BME280;75039;51.970;5.660;2024-01-15T07:44:40;100201.56;;;5.14;62.50
48848;BME280;75039;51.970;5.660;2024-01-15T07:47:07;100206.97;;;5.13;62.40
48848;BME280;75039;51.970;5.660;2024-01-15T07:49:35;100206.28;;;5.09;62.46
48848;BME280;75039;51.970;5.660;2024-01-15T07:52:02;100192.31;;;5.05;62.45
48848;BME280;75039;51.970;5.660;2024-01-15T07:54:29;100197.91;;;5.01;62.46
48848;BME280;75039;51.970;5.660;2024-01-15T07:57:00;100192.84;;;4.96;62.46
48848;BME280;75039;51.970;5.660;2024-01-15T07:59:27;100195.59;;;4.95;62.52
48848;BME280;75039;51.970;5.660;2024-01-15T08:01:54;100193.03;;;4.93;62.57
48848;BME280;75039;51.970;5.660;2024-01-15T08:04:21;100185.03;;;4.93;62.29
48848;BME280;75039;51.970;5.660;2024-01-15T08:06:48;100186.84;;;4.93;62.56
48848;BME280;75039;51.970;5.660;2024-01-15T08:09:15;100193.81;;;4.95;62.82
48848;BME280;75039;51.970;5.660;2024-01-15T08:11:43;100192.09;;;4.94;62.62
48848;BME280;75039;51.970;5.660;2024-01-15T08:14:10;100196.47;;;4.95;62.47
48848;BME280;75039;51.970;5.660;2024-01-15T08:16:37;100204.44;;;4.95;62.50
48848;BME280;75039;51.970;5.660;2024-01-15T08:19:04;100203.59;;;4.95;62.60
48848;BME280;75039;51.970;5.660;2024-01-15T08:21:32;100196.47;;;4.95;62.60
48848;BME280;75039;51.970;5.660;2024-01-15T08:24:00;100195.50;;;4.96;62.67
48848;BME280;75039;51.970;5.660;2024-01-15T08:26:30;100182.22;;;4.96;62.54
48848;BME280;75039;51.970;5.660;2024-01-15T08:28:57;100182.22;;;4.96;62.61
48848;BME280;75039;51.970;5.660;2024-01-15T08:31:24;100178.59;;;4.97;62.58
48848;BME280;75039;51.970;5.660;2024-01-15T08:33:51;100178.59;;;4.97;62.61
48848;BME280;75039;51.970;5.660;2024-01-15T08:36:18;100182.03;;;4.99;62.80
48848;BME280;75039;51.970;5.660;2024-01-15T08:38:45;100187.16;;;5.02;62.68
48848;BME280;75039;51.970;5.660;2024-01-15T08:41:13;100180.81;;;5.05;62.72
48848;BME280;75039;51.970;5.660;2024-01-15T08:43:40;100178.06;;;5.06;62.60
48848;BME280;75039;51.970;5.660;2024-01-15T08:46:06;100179.59;;;5.10;62.77
48848;BME280;75039;51.970;5.660;2024-01-15T08:48:34;100193.66;;;5.13;62.72
48848;BME280;75039;51.970;5.660;2024-01-15T08:51:01;100191.84;;;5.13;62.66
48848;BME280;75039;51.970;5.660;2024-01-15T08:53:27;100190.06;;;5.14;62.77
48848;BME280;75039;51.970;5.660;2024-01-15T08:55:54;100204.22;;;5.14;62.75
48848;BME280;75039;51.970;5.660;2024-01-15T08:58:23;100199.75;;;5.15;62.72
48848;BME280;75039;51.970;5.660;2024-01-15T09:00:50;100207.75;;;5.15;62.79
48848;BME280;75039;51.970;5.660;2024-01-15T09:03:17;100205.06;;;5.15;62.72
48848;BME280;75039;51.970;5.660;2024-01-15T09:05:44;100211.16;;;5.17;62.64
48848;BME280;75039;51.970;5.660;2024-01-15T09:08:11;100212.03;;;5.17;62.79
48848;BME280;75039;51.970;5.660;2024-01-15T09:10:38;100213.75;;;5.18;62.73
48848;BME280;75039;51.970;5.660;2024-01-15T09:13:05;100221.91;;;5.15;62.66
48848;BME280;75039;51.970;5.660;2024-01-15T09:15:32;100222.84;;;5.14;62.62
48848;BME280;75039;51.970;5.660;2024-01-15T09:17:59;100221.06;;;5.15;62.76
48848;BME280;75039;51.970;5.660;2024-01-15T09:20:26;100209.53;;;5.14;62.70
48848;BME280;75039;51.970;5.660;2024-01-15T09:22:53;100214.00;;;5.14;62.71
48848;BME280;75039;51.970;5.660;2024-01-15T09:25:20;100213.16;;;5.13;62.81
48848;BME280;75039;51.970;5.660;2024-01-15T09:27:47;100217.63;;;5.13;62.85
48848;BME280;75039;51.970;5.660;2024-01-15T09:30:15;100217.44;;;5.16;62.76
48848;BME280;75039;51.970;5.660;2024-01-15T09:32:42;100219.88;;;5.20;62.83
48848;BME280;75039;51.970;5.660;2024-01-15T09:35:09;100228.53;;;5.24;62.83
48848;BME280;75039;51.970;5.660;2024-01-15T09:37:37;100242.69;;;5.24;62.85
48848;BME280;75039;51.970;5.660;2024-01-15T09:40:14;100244.59;;;5.22;62.91
48848;BME280;75039;51.970;5.660;2024-01-15T09:42:44;100219.88;;;5.20;62.89
48848;BME280;75039;51.970;5.660;2024-01-15T09:45:12;100212.88;;;5.18;62.75
48848;BME280;75039;51.970;5.660;2024-01-15T09:47:40;100208.59;;;5.15;62.38
48848;BME280;75039;51.970;5.660;2024-01-15T09:50:13;100210.41;;;5.15;62.77
48848;BME280;75039;51.970;5.660;2024-01-15T09:52:40;100213.16;;;5.13;62.82
48848;BME280;75039;51.970;5.660;2024-01-15T09:55:08;100214.97;;;5.13;62.66
48848;BME280;75039;51.970;5.660;2024-01-15T09:57:36;100211.44;;;5.12;62.47
48848;BME280;75039;51.970;5.660;2024-01-15T10:00:04;100216.66;;;5.14;62.69
48848;BME280;75039;51.970;5.660;2024-01-15T10:02:34;100214.88;;;5.14;62.76
48848;BME280;75039;51.970;5.660;2024-01-15T10:05:02;100218.38;;;5.15;62.68
48848;BME280;75039;51.970;5.660;2024-01-15T10:07:29;100229.72;;;5.18;62.83
48848;BME280;75039;51.970;5.660;2024-01-15T10:09:56;100227.84;;;5.20;63.04
48848;BME280;75039;51.970;5.660;2024-01-15T10:12:23;100223.19;;;5.24;62.87
48848;BME280;75039;51.970;5.660;2024-01-15T10:14:50;100224.72;;;5.28;62.87
48848;BME280;75039;51.970;5.660;2024-01-15T10:17:17;100224.66;;;5.29;62.93
48848;BME280;75039;51.970;5.660;2024-01-15T10:19:45;100220.19;;;5.30;62.84
48848;BME280;75039;51.970;5.660;2024-01-15T10:22:16;100221.03;;;5.30;62.69
48848;BME280;75039;51.970;5.660;2024-01-15T10:24:45;100221.13;;;5.29;62.78
48848;BME280;75039;51.970;5.660;2024-01-15T10:27:16;100211.50;;;5.26;62.71
48848;BME280;75039;51.970;5.660;2024-01-15T10:29:43;100217.78;;;5.25;62.79
48848;BME280;75039;51.970;5.660;2024-01-15T10:32:12;100216.06;;;5.24;62.42
48848;BME280;75039;51.970;5.660;2024-01-15T10:34:42;100216.06;;;5.24;62.81
48848;BME280;75039;51.970;5.660;2024-01-15T10:37:10;100216.75;;;5.28;62.79
48848;BME280;75039;51.970;5.660;2024-01-15T10:39:37;100218.94;;;5.35;62.97
48848;BME280;75039;51.970;5.660;2024-01-15T10:42:05;100212.31;;;5.42;63.09
48848;BME280;75039;51.970;5.660;2024-01-15T10:44:33;100214.50;;;5.50;63.04
48848;BME280;75039;51.970;5.660;2024-01-15T10:47:01;100215.00;;;5.57;62.98
48848;BME280;75039;51.970;5.660;2024-01-15T10:49:28;100215.31;;;5.66;63.11
48848;BME280;75039;51.970;5.660;2024-01-15T10:52:03;100236.34;;;5.71;63.15
48848;BME280;75039;51.970;5.660;2024-01-15T10:54:30;100237.09;;;5.73;63.04
48848;BME280;75039;51.970;5.660;2024-01-15T10:56:57;100232.72;;;5.72;62.91
48848;BME280;75039;51.970;5.660;2024-01-15T10:59:24;100224.81;;;5.70;63.04
48848;BME280;75039;51.970;5.660;2024-01-15T11:01:52;100226.63;;;5.70;62.84
48848;BME280;75039;51.970;5.660;2024-01-15T11:04:21;100226.63;;;5.70;62.87
48848;BME280;75039;51.970;5.660;2024-01-15T11:06:51;100216.16;;;5.67;62.70
48848;BME280;75039;51.970;5.660;2024-01-15T11:09:20;100220.53;;;5.68;62.74
48848;BME280;75039;51.970;5.660;2024-01-15T11:11:47;100213.41;;;5.68;62.89
48848;BME280;75039;51.970;5.660;2024-01-15T11:14:41;100219.50;;;5.70;62.78
48848;BME280;75039;51.970;5.660;2024-01-15T11:17:15;100221.97;;;5.73;62.78
48848;BME280;75039;51.970;5.660;2024-01-15T11:19:46;100217.31;;;5.77;62.83
48848;BME280;75039;51.970;5.660;2024-01-15T11:24:57;100233.59;;;5.87;62.84
48848;BME280;75039;51.970;5.660;2024-01-15T11:27:44;100231.88;;;5.86;62.85
48848;BME280;75039;51.970;5.660;2024-01-15T11:30:14;100234.34;;;5.89;62.75
48848;BME280;75039;51.970;5.660;2024-01-15T11:32:41;100245.97;;;5.88;62.88
48848;BME280;75039;51.970;5.660;2024-01-15T11:35:10;100237.97;;;5.88;62.88
48848;BME280;75039;51.970;5.660;2024-01-15T11:40:19;100238.25;;;5.83;62.81
48848;BME280;75039;51.970;5.660;2024-01-15T11:42:46;100244.44;;;5.84;62.75
48848;BME280;75039;51.970;5.660;2024-01-15T11:45:18;100231.19;;;5.82;62.92
48848;BME280;75039;51.970;5.660;2024-01-15T11:50:48;100234.06;;;5.79;62.83
48848;BME280;75039;51.970;5.660;2024-01-15T11:53:43;100235.97;;;5.77;62.79
48848;BME280;75039;51.970;5.660;2024-01-15T11:56:15;100227.00;;;5.78;62.72
48848;BME280;75039;51.970;5.660;2024-01-15T11:58:44;100227.00;;;5.78;62.80
48848;BME280;75039;51.970;5.660;2024-01-15T12:01:12;100232.25;;;5.80;62.84
48848;BME280;75039;51.970;5.660;2024-01-15T12:03:39;100233.09;;;5.80;62.90
48848;BME280;75039;51.970;5.660;2024-01-15T12:06:06;100243.66;;;5.82;62.82
48848;BME280;75039;51.970;5.660;2024-01-15T12:08:34;100241.97;;;5.81;62.74
48848;BME280;75039;51.970;5.660;2024-01-15T12:11:06;100243.75;;;5.80;62.74
48848;BME280;75039;51.970;5.660;2024-01-15T12:13:34;100239.28;;;5.81;62.82
48848;BME280;75039;51.970;5.660;2024-01-15T12:16:02;100243.56;;;5.83;62.86
48848;BME280;75039;51.970;5.660;2024-01-15T12:18:31;100248.81;;;5.85;62.88
48848;BME280;75039;51.970;5.660;2024-01-15T12:20:58;100246.16;;;5.85;62.80
48848;BME280;75039;51.970;5.660;2024-01-15T12:23:25;100246.06;;;5.86;62.63
48848;BME280;75039;51.970;5.660;2024-01-15T12:25:53;100252.09;;;5.90;62.74
48848;BME280;75039;51.970;5.660;2024-01-15T12:28:20;100246.66;;;5.91;62.77
48848;BME280;75039;51.970;5.660;2024-01-15T12:30:47;100251.13;;;5.91;62.93
48848;BME280;75039;51.970;5.660;2024-01-15T12:33:17;100258.34;;;5.89;62.61
48848;BME280;75039;51.970;5.660;2024-01-15T12:35:45;100259.28;;;5.88;62.56
48848;BME280;75039;51.970;5.660;2024-01-15T12:38:12;100273.47;;;5.88;62.57
48848;BME280;75039;51.970;5.660;2024-01-15T12:40:39;100280.59;;;5.88;62.53
48848;BME280;75039;51.970;5.660;2024-01-15T12:43:06;100279.66;;;5.89;62.69
48848;BME280;75039;51.970;5.660;2024-01-15T12:45:34;100280.53;;;5.89;62.92
48848;BME280;75039;51.970;5.660;2024-01-15T12:48:03;100286.72;;;5.90;62.67
48848;BME280;75039;51.970;5.660;2024-01-15T12:50:33;100289.44;;;5.88;62.61
48848;BME280;75039;51.970;5.660;2024-01-15T12:52:59;100289.53;;;5.87;62.86
48848;BME280;75039;51.970;5.660;2024-01-15T12:55:26;100281.75;;;5.84;62.74
48848;BME280;75039;51.970;5.660;2024-01-15T12:57:53;100288.97;;;5.82;62.60
48848;BME280;75039;51.970;5.660;2024-01-15T13:00:22;100294.38;;;5.80;62.44
48848;BME280;75039;51.970;5.660;2024-01-15T13:02:50;100313.03;;;5.80;62.64
48848;BME280;75039;51.970;5.660;2024-01-15T13:05:17;100320.19;;;5.80;62.62
48848;BME280;75039;51.970;5.660;2024-01-15T13:07:45;100330.84;;;5.80;62.42
48848;BME280;75039;51.970;5.660;2024-01-15T13:10:12;100332.72;;;5.78;62.68